Terminal Aerodrome Forecast
Issued by NWS

Home | Current Version | Previous Version | Text Only | Print | Product List | Glossary On
Versions: 1 2 3 4 5 6 7 8 9 10 11 12 13 14 15 16
000
FTUS42 KGSP 311739
TAFHKY
TAF
KHKY 311739Z 3118/0118 VRB04KT P6SM SCT020 BKN060
     FM311900 24004KT P6SM BKN040
     FM010200 30005KT 6SM -SHRA OVC030
     FM010500 32009KT 4SM SHRA OVC020
     FM011400 34014G25KT 3SM SHRASN OVC012=

USA.gov is the U.S. government's official web portal to all federal, state and local government web resources and services.